createdAt,value
2022-10-24T00:03:43.223Z,99919.00
2022-10-24T00:08:44.672Z,99910.91
2022-10-24T00:13:46.163Z,99920.41
2022-10-24T00:18:47.677Z,99918.25
2022-10-24T00:23:49.123Z,99927.78
2022-10-24T00:28:50.641Z,99916.69
2022-10-24T00:33:52.153Z,99907.88
2022-10-24T00:38:53.661Z,99908.16
2022-10-24T00:44:13.867Z,99907.66
2022-10-24T00:49:16.339Z,99904.72
2022-10-24T00:54:17.970Z,99904.41
2022-10-24T00:59:19.422Z,99898.22
2022-10-24T01:04:20.863Z,99905.00
2022-10-24T01:09:50.983Z,99903.34
2022-10-24T01:14:59.869Z,99905.38
2022-10-24T01:20:23.022Z,99885.72
2022-10-24T01:25:45.255Z,99891.22
2022-10-24T01:30:49.392Z,99871.75
2022-10-24T01:35:56.358Z,99872.69
2022-10-24T01:41:00.277Z,99872.84
2022-10-24T01:46:03.462Z,99868.19
2022-10-24T01:51:04.965Z,99858.63
2022-10-24T01:56:06.855Z,99854.94
2022-10-24T02:01:10.497Z,99852.44
2022-10-24T02:06:16.178Z,99841.16
2022-10-24T02:11:17.625Z,99837.78
2022-10-24T02:16:19.469Z,99833.38
2022-10-24T02:21:49.299Z,99842.44
2022-10-24T02:26:58.208Z,99821.03
2022-10-24T02:31:59.672Z,99811.94
2022-10-24T02:37:01.130Z,99815.66
2022-10-24T02:42:02.867Z,99812.66
2022-10-24T02:47:04.723Z,99821.56
2022-10-24T02:52:06.344Z,99812.28
2022-10-24T02:57:07.799Z,99810.97
2022-10-24T03:02:09.259Z,99826.38
2022-10-24T03:07:10.818Z,99817.06
2022-10-24T03:12:16.003Z,99812.53
2022-10-24T03:17:17.466Z,99799.00
2022-10-24T03:22:19.142Z,99794.91
2022-10-24T03:27:20.583Z,99784.72
2022-10-24T03:32:22.141Z,99781.66
2022-10-24T03:37:23.662Z,99767.25
2022-10-24T03:42:25.137Z,99766.47
2022-10-24T03:47:26.579Z,99761.41
2022-10-24T03:52:28.029Z,99757.63
2022-10-24T03:57:29.478Z,99756.31
2022-10-24T04:02:30.933Z,99745.16
2022-10-24T04:07:32.378Z,99737.50
2022-10-24T04:12:33.843Z,99745.19
2022-10-24T04:17:35.325Z,99719.09
2022-10-24T04:22:36.770Z,99722.38
2022-10-24T04:27:40.571Z,99720.88
2022-10-24T04:32:42.197Z,99721.69
2022-10-24T04:37:43.851Z,99731.47
2022-10-24T04:42:45.463Z,99734.13
2022-10-24T04:47:47.423Z,99741.06
2022-10-24T04:52:49.075Z,99727.63
2022-10-24T04:57:50.517Z,99724.75
2022-10-24T05:02:54.155Z,99722.97
2022-10-24T05:07:58.238Z,99733.16
2022-10-24T05:12:59.731Z,99742.03
2022-10-24T05:18:01.183Z,99739.75
2022-10-24T05:23:02.647Z,99735.78
2022-10-24T05:28:04.122Z,99729.03
2022-10-24T05:33:05.669Z,99716.28
2022-10-24T05:38:07.205Z,99720.00
2022-10-24T05:43:08.665Z,99721.13
2022-10-24T05:48:10.121Z,99716.88
2022-10-24T05:53:12.961Z,99719.31
2022-10-24T05:58:14.432Z,99716.19
2022-10-24T06:03:15.883Z,99709.84
2022-10-24T06:08:17.536Z,99704.47
2022-10-24T06:13:19.057Z,99703.22
2022-10-24T06:18:20.556Z,99713.72
2022-10-24T06:23:22.055Z,99707.75
2022-10-24T06:28:23.504Z,99698.06
2022-10-24T06:33:24.960Z,99708.22
2022-10-24T06:38:26.642Z,99704.50
2022-10-24T06:43:28.094Z,99711.88
2022-10-24T06:48:29.554Z,99724.53
2022-10-24T06:53:31.025Z,99723.69
2022-10-24T06:58:33.288Z,99723.53
2022-10-24T07:03:34.797Z,99718.75
2022-10-24T07:08:36.255Z,99737.84
2022-10-24T07:13:37.810Z,99725.72
2022-10-24T07:18:39.353Z,99726.16
2022-10-24T07:23:40.921Z,99732.38
2022-10-24T07:28:43.065Z,99741.22
2022-10-24T07:33:44.515Z,99745.69
2022-10-24T07:38:46.954Z,99746.63
2022-10-24T07:43:48.456Z,99748.34
2022-10-24T07:48:50.381Z,99751.38
2022-10-24T07:53:51.871Z,99737.03
2022-10-24T07:58:53.411Z,99749.03
2022-10-24T08:03:55.439Z,99731.25
2022-10-24T08:08:56.945Z,99732.69
2022-10-24T08:13:58.440Z,99745.41
2022-10-24T08:18:59.938Z,99737.72
2022-10-24T08:24:01.385Z,99753.41
2022-10-24T08:29:04.382Z,99737.22
2022-10-24T08:34:06.109Z,99732.09
2022-10-24T08:39:07.562Z,99744.19
2022-10-24T08:44:39.955Z,99745.06
2022-10-24T08:50:10.485Z,99724.31
2022-10-24T08:55:25.094Z,99729.34
2022-10-24T09:00:40.680Z,99721.25
2022-10-24T09:05:55.353Z,99723.63
2022-10-24T09:11:03.942Z,99729.59
2022-10-24T09:16:05.265Z,99715.63
2022-10-24T09:21:07.632Z,99717.69
2022-10-24T09:26:16.750Z,99716.66
2022-10-24T09:31:20.032Z,99733.75
2022-10-24T09:36:21.901Z,99717.44
2022-10-24T09:41:27.726Z,99734.03
2022-10-24T09:46:37.080Z,99730.09
2022-10-24T09:51:47.683Z,99721.88
2022-10-24T09:56:54.386Z,99717.53
2022-10-24T10:02:12.718Z,99729.94
2022-10-24T10:07:17.163Z,99729.00
2022-10-24T10:12:38.045Z,99734.31
2022-10-24T10:17:39.514Z,99731.78
2022-10-24T10:22:40.984Z,99728.25
2022-10-24T10:27:42.584Z,99721.09
2022-10-24T10:32:59.317Z,99734.50
2022-10-24T10:38:38.025Z,99725.38
2022-10-24T10:43:51.578Z,99735.19
2022-10-24T10:49:10.913Z,99742.69
2022-10-24T10:54:31.123Z,99750.44
2022-10-24T10:59:38.694Z,99748.03
2022-10-24T11:04:45.166Z,99742.59
2022-10-24T11:09:48.143Z,99737.66
2022-10-24T11:15:02.216Z,99731.63
2022-10-24T11:20:37.350Z,99744.41
2022-10-24T11:25:40.016Z,99740.59
2022-10-24T11:30:56.782Z,99726.66
2022-10-24T11:36:13.874Z,99728.81
2022-10-24T11:41:23.914Z,99741.59
2022-10-24T11:46:28.601Z,99744.25
2022-10-24T11:51:29.885Z,99741.41
2022-10-24T11:56:35.611Z,99741.25
2022-10-24T12:01:55.153Z,99736.44
2022-10-24T12:07:23.921Z,99759.28
2022-10-24T12:12:44.903Z,99749.97
2022-10-24T12:18:04.040Z,99746.16
2022-10-24T12:23:05.526Z,99762.19
2022-10-24T12:28:12.198Z,99768.59
2022-10-24T12:33:25.190Z,99768.63
2022-10-24T12:38:29.497Z,99775.63
2022-10-24T12:43:42.775Z,99778.66
2022-10-24T12:49:10.313Z,99775.09
2022-10-24T12:54:11.588Z,99792.72
2022-10-24T12:59:22.750Z,99792.13
2022-10-24T13:04:49.241Z,99779.81
2022-10-24T13:10:34.757Z,99790.25
2022-10-24T13:15:56.952Z,99807.25
2022-10-24T13:21:54.895Z,99797.13
2022-10-24T13:26:56.676Z,99811.38
2022-10-24T13:32:04.150Z,99805.75
2022-10-24T13:37:12.564Z,99807.47
2022-10-24T13:42:43.214Z,99804.38
2022-10-24T13:47:45.481Z,99834.56
2022-10-24T13:52:49.573Z,99831.97
2022-10-24T13:58:11.074Z,99838.63
2022-10-24T14:03:13.677Z,99840.50
2022-10-24T14:08:37.968Z,99836.13
2022-10-24T14:13:44.609Z,99836.38
2022-10-24T14:18:46.080Z,99834.69
2022-10-24T14:23:55.793Z,99843.97
2022-10-24T14:29:00.019Z,99843.28
2022-10-24T14:34:03.021Z,99851.47
2022-10-24T14:39:04.498Z,99858.16
2022-10-24T14:44:06.275Z,99855.78
2022-10-24T14:49:26.067Z,99865.47
2022-10-24T14:54:31.567Z,99874.78
2022-10-24T14:59:35.207Z,99880.06
2022-10-24T15:04:38.729Z,99876.19
2022-10-24T15:09:59.744Z,99891.13
2022-10-24T15:15:27.751Z,99894.75
2022-10-24T15:20:37.061Z,99894.13
2022-10-24T15:25:42.056Z,99896.09
2022-10-24T15:30:44.597Z,99882.50
2022-10-24T15:35:46.053Z,99897.81
2022-10-24T15:40:48.112Z,99908.59
2022-10-24T15:45:49.581Z,99917.66
2022-10-24T15:50:51.040Z,99920.63
2022-10-24T15:55:52.493Z,99938.50
2022-10-24T16:00:54.006Z,99936.03
2022-10-24T16:05:56.035Z,99945.53
2022-10-24T16:10:57.510Z,99950.84
2022-10-24T16:15:58.993Z,99956.09
2022-10-24T16:21:00.542Z,99973.50
2022-10-24T16:26:02.003Z,99954.97
2022-10-24T16:31:06.324Z,99986.28
2022-10-24T16:36:07.880Z,99994.13
2022-10-24T16:41:14.688Z,99996.53
2022-10-24T16:46:17.804Z,100008.19
2022-10-24T16:51:23.164Z,100022.91
2022-10-24T16:56:24.711Z,100028.75
2022-10-24T17:01:27.785Z,100028.75
2022-10-24T17:06:29.827Z,100014.06
2022-10-24T17:11:46.861Z,100057.25
2022-10-24T17:16:48.341Z,100067.28
2022-10-24T17:21:50.537Z,100047.41
2022-10-24T17:26:52.060Z,100058.25
2022-10-24T17:31:53.988Z,100058.19
2022-10-24T17:37:05.437Z,100050.81
2022-10-24T17:42:09.430Z,100063.41
2022-10-24T17:47:11.013Z,100077.66
2022-10-24T17:52:13.350Z,100067.41
2022-10-24T17:57:14.662Z,100088.22
2022-10-24T18:02:16.162Z,100089.91
2022-10-24T18:07:17.704Z,100101.56
2022-10-24T18:12:19.151Z,100110.94
2022-10-24T18:17:20.600Z,100127.81
2022-10-24T18:22:22.062Z,100102.22
2022-10-24T18:27:23.539Z,100115.34
2022-10-24T18:32:24.984Z,100115.00
2022-10-24T18:37:26.669Z,100133.09
2022-10-24T18:42:38.333Z,100123.28
2022-10-24T18:47:40.099Z,100116.47
2022-10-24T18:53:04.408Z,100133.97
2022-10-24T18:58:10.455Z,100138.69
2022-10-24T19:03:36.810Z,100126.72
2022-10-24T19:08:38.297Z,100128.19
2022-10-24T19:13:39.859Z,100132.28
2022-10-24T19:18:41.307Z,100137.41
2022-10-24T19:23:42.771Z,100145.25
2022-10-24T19:28:44.265Z,100141.41
2022-10-24T19:33:45.737Z,100156.88
2022-10-24T19:38:47.219Z,100152.47
2022-10-24T19:43:48.693Z,100157.94
2022-10-24T19:48:50.281Z,100155.19
2022-10-24T19:53:54.588Z,100142.03
2022-10-24T19:58:56.077Z,100152.28
2022-10-24T20:03:57.575Z,100160.44
2022-10-24T20:08:59.038Z,100162.13
2022-10-24T20:14:00.492Z,100172.53
2022-10-24T20:19:01.977Z,100168.69
2022-10-24T20:24:03.530Z,100163.50
2022-10-24T20:29:05.053Z,100179.06
2022-10-24T20:34:09.711Z,100181.56
2022-10-24T20:39:11.992Z,100192.63
2022-10-24T20:44:13.318Z,100186.59
2022-10-24T20:49:14.815Z,100206.91
2022-10-24T20:54:16.263Z,100198.09
2022-10-24T20:59:17.790Z,100201.06
2022-10-24T21:04:20.834Z,100213.59
2022-10-24T21:09:22.555Z,100214.66
2022-10-24T21:14:24.027Z,100213.81
2022-10-24T21:19:26.655Z,100206.28
2022-10-24T21:24:28.112Z,100216.28
2022-10-24T21:29:33.917Z,100220.69
2022-10-24T21:34:35.857Z,100224.75
2022-10-24T21:39:37.305Z,100232.34
2022-10-24T21:44:38.759Z,100228.72
2022-10-24T21:49:40.220Z,100234.28
2022-10-24T21:54:41.689Z,100235.53
2022-10-24T21:59:43.178Z,100243.03
2022-10-24T22:04:44.638Z,100246.94
2022-10-24T22:09:46.117Z,100246.06
2022-10-24T22:14:47.565Z,100247.59
2022-10-24T22:19:49.007Z,100258.34
2022-10-24T22:24:50.461Z,100257.41
2022-10-24T22:29:51.911Z,100258.28
2022-10-24T22:34:53.650Z,100261.84
2022-10-24T22:39:55.368Z,100266.84
2022-10-24T22:44:57.014Z,100280.03
2022-10-24T22:50:10.520Z,100272.50
2022-10-24T22:55:19.099Z,100270.94
2022-10-24T23:00:20.833Z,100277.75
2022-10-24T23:05:37.629Z,100278.38
2022-10-24T23:10:39.956Z,100292.41
2022-10-24T23:15:41.305Z,100273.88
2022-10-24T23:20:50.404Z,100287.47
2022-10-24T23:26:03.641Z,100288.44
2022-10-24T23:31:05.474Z,100287.59
2022-10-24T23:36:07.404Z,100296.81
2022-10-24T23:41:09.613Z,100278.69
2022-10-24T23:46:31.817Z,100286.22
2022-10-24T23:51:40.987Z,100293.75
2022-10-24T23:56:42.650Z,100291.47
